Time;durP1;ratioP1;P1;durP2;ratioP2;P2;SDS_P1;SDS_P2;PMS_P1;PMS_P2;Temp;Humidity;BMP_temperature;BMP_pressure;BME280_temperature;BME280_humidity;BME280_pressure;Samples;Min_cycle;Max_cycle;Signal;HPM_P1;HPM_P2
2023/10/16 00:01:10;;;;;;;2.50;2.40;;;;;;;;;;5108485;28;20480;-64
2023/10/16 00:03:41;;;;;;;2.50;2.40;;;;;;;;;;5101365;28;20091;-65
2023/10/16 00:06:12;;;;;;;2.85;2.65;;;;;;;;;;5106818;28;20218;-66
2023/10/16 00:08:47;;;;;;;2.90;2.70;;;;;;;;;;5102183;28;20537;-65
2023/10/16 00:11:17;;;;;;;;;;;;;;;;;;5110392;28;20048;-65
2023/10/16 00:13:49;;;;;;;2.10;2.00;;;;;;;;;;5101652;27;19923;-65
2023/10/16 00:16:18;;;;;;;2.60;2.50;;;;;;;;;;5105448;28;20109;-64
2023/10/16 00:18:48;;;;;;;2.50;2.40;;;;;;;;;;5103191;27;20036;-64
2023/10/16 00:21:17;;;;;;;2.47;2.38;;;;;;;;;;5109981;28;20456;-66
2023/10/16 00:23:46;;;;;;;2.35;2.25;;;;;;;;;;5104783;27;20048;-65
2023/10/16 00:26:16;;;;;;;2.45;2.25;;;;;;;;;;5108738;28;20121;-65
2023/10/16 00:28:45;;;;;;;2.88;2.67;;;;;;;;;;5101661;27;20052;-64
2023/10/16 00:31:20;;;;;;;2.60;2.40;;;;;;;;;;5110577;27;20047;-65
2023/10/16 00:33:50;;;;;;;2.60;2.30;;;;;;;;;;5106098;27;20115;-63
2023/10/16 00:36:19;;;;;;;2.08;1.98;;;;;;;;;;5098712;27;20055;-67
2023/10/16 00:38:51;;;;;;;2.25;2.15;;;;;;;;;;5102620;27;20059;-65
2023/10/16 00:41:23;;;;;;;2.35;2.25;;;;;;;;;;5109298;28;20165;-66
2023/10/16 00:43:52;;;;;;;2.38;2.28;;;;;;;;;;5104332;28;20044;-68
2023/10/16 00:46:32;;;;;;;2.60;2.35;;;;;;;;;;5104579;28;20048;-65
2023/10/16 00:49:01;;;;;;;2.65;2.45;;;;;;;;;;5101718;28;20047;-65
2023/10/16 00:51:30;;;;;;;2.15;2.05;;;;;;;;;;5107069;27;20060;-65
2023/10/16 00:54:16;;;;;;;2.30;2.20;;;;;;;;;;5099951;28;20139;-63
2023/10/16 00:56:45;;;;;;;2.22;2.13;;;;;;;;;;5104627;28;20473;-64
2023/10/16 00:59:16;;;;;;;2.28;2.17;;;;;;;;;;5103661;28;20047;-65
2023/10/16 01:01:46;;;;;;;2.58;2.35;;;;;;;;;;5104064;28;20048;-65
2023/10/16 01:04:16;;;;;;;2.47;2.30;;;;;;;;;;5101301;28;20056;-65
2023/10/16 01:06:45;;;;;;;2.28;2.17;;;;;;;;;;5102783;28;20056;-64
2023/10/16 01:09:22;;;;;;;2.28;2.17;;;;;;;;;;5104849;27;20130;-63
2023/10/16 01:11:51;;;;;;;2.20;2.10;;;;;;;;;;5107552;27;20464;-65
2023/10/16 01:14:20;;;;;;;2.30;2.20;;;;;;;;;;5103303;28;20127;-64
2023/10/16 01:16:50;;;;;;;2.15;2.05;;;;;;;;;;5109430;27;20528;-65
2023/10/16 01:19:20;;;;;;;2.22;2.13;;;;;;;;;;5114613;27;20047;-64
2023/10/16 01:21:49;;;;;;;2.38;2.28;;;;;;;;;;5101820;27;20051;-63
2023/10/16 01:24:19;;;;;;;2.53;2.42;;;;;;;;;;5108053;28;20047;-64
2023/10/16 01:26:49;;;;;;;2.92;2.20;;;;;;;;;;5103247;28;20050;-63
2023/10/16 01:29:20;;;;;;;2.30;2.20;;;;;;;;;;5107312;28;20051;-64
2023/10/16 01:31:52;;;;;;;2.30;2.20;;;;;;;;;;5102498;27;20048;-64
2023/10/16 01:34:22;;;;;;;2.50;2.33;;;;;;;;;;5105406;28;20054;-64
2023/10/16 01:36:51;;;;;;;2.30;2.20;;;;;;;;;;5102452;27;20036;-65
2023/10/16 01:42:19;;;;;;;2.67;2.05;;;;;;;;;;5063650;28;20048;-63
2023/10/16 01:44:51;;;;;;;2.42;2.33;;;;;;;;;;5097789;27;20503;-65
2023/10/16 01:47:19;;;;;;;2.70;2.60;;;;;;;;;;5096916;27;20122;-65
2023/10/16 01:49:49;;;;;;;2.55;2.35;;;;;;;;;;5097964;28;20044;-65
2023/10/16 01:52:17;;;;;;;2.28;2.17;;;;;;;;;;5095437;28;20102;-65
2023/10/16 01:54:48;;;;;;;2.17;2.08;;;;;;;;;;5101569;28;20127;-64
2023/10/16 01:57:17;;;;;;;2.35;2.15;;;;;;;;;;5101097;28;20079;-65
2023/10/16 01:59:47;;;;;;;2.50;2.40;;;;;;;;;;5108368;27;20083;-64
2023/10/16 02:02:17;;;;;;;2.80;2.60;;;;;;;;;;5103857;28;20549;-64
2023/10/16 02:04:46;;;;;;;2.38;2.28;;;;;;;;;;5104875;28;20055;-64
2023/10/16 02:07:15;;;;;;;2.30;2.20;;;;;;;;;;5103821;27;20056;-64
2023/10/16 02:09:45;;;;;;;2.45;2.25;;;;;;;;;;5114343;27;20047;-63
2023/10/16 02:12:16;;;;;;;2.60;2.40;;;;;;;;;;5101862;28;20055;-64
2023/10/16 02:14:45;;;;;;;2.65;2.50;;;;;;;;;;5106194;28;20350;-64
2023/10/16 02:17:21;;;;;;;2.15;2.05;;;;;;;;;;5099365;28;20048;-65
2023/10/16 02:19:51;;;;;;;2.38;2.28;;;;;;;;;;5100205;28;20063;-64
2023/10/16 02:22:22;;;;;;;2.10;2.00;;;;;;;;;;5105910;27;20054;-64
2023/10/16 02:24:51;;;;;;;2.17;2.08;;;;;;;;;;5094648;28;20510;-64
2023/10/16 02:27:20;;;;;;;2.42;2.33;;;;;;;;;;5100971;27;20579;-64
2023/10/16 02:29:52;;;;;;;2.22;2.13;;;;;;;;;;5105077;28;20488;-64
2023/10/16 02:32:22;;;;;;;2.60;2.50;;;;;;;;;;5092973;28;20146;-64
2023/10/16 02:34:51;;;;;;;2.50;2.40;;;;;;;;;;5105234;28;20122;-64
2023/10/16 02:37:20;;;;;;;2.30;2.20;;;;;;;;;;5099440;27;20055;-64
2023/10/16 02:39:53;;;;;;;2.42;2.33;;;;;;;;;;5100211;27;20104;-64
2023/10/16 02:42:26;;;;;;;2.65;2.45;;;;;;;;;;5111937;27;20043;-64
2023/10/16 02:44:56;;;;;;;2.50;2.22;;;;;;;;;;5110402;27;20070;-65
2023/10/16 02:47:26;;;;;;;2.63;2.42;;;;;;;;;;5105680;28;20043;-64
2023/10/16 02:49:56;;;;;;;2.30;2.20;;;;;;;;;;5103229;28;20075;-65
2023/10/16 02:52:25;;;;;;;2.70;2.60;;;;;;;;;;5098832;28;20066;-65
2023/10/16 02:54:56;;;;;;;2.38;2.28;;;;;;;;;;5103855;28;20036;-66
2023/10/16 02:57:27;;;;;;;2.50;2.40;;;;;;;;;;5095925;27;20051;-63
2023/10/16 02:59:56;;;;;;;2.80;2.60;;;;;;;;;;5108195;27;20066;-65
2023/10/16 03:02:27;;;;;;;2.28;2.17;;;;;;;;;;5102118;28;20055;-65
2023/10/16 03:05:10;;;;;;;2.60;2.50;;;;;;;;;;5101131;28;20495;-65
2023/10/16 03:07:44;;;;;;;2.40;2.30;;;;;;;;;;5100336;28;20127;-65
2023/10/16 03:10:14;;;;;;;;;;;;;;;;;;5098542;28;20454;-65
2023/10/16 03:12:44;;;;;;;2.53;2.42;;;;;;;;;;5098049;28;19977;-66
2023/10/16 03:15:16;;;;;;;2.40;2.30;;;;;;;;;;5100408;28;20330;-65
2023/10/16 03:17:50;;;;;;;2.25;2.15;;;;;;;;;;5097164;28;20050;-64
2023/10/16 03:20:23;;;;;;;2.40;2.30;;;;;;;;;;5107544;28;20138;-65
2023/10/16 03:22:53;;;;;;;2.20;2.10;;;;;;;;;;5107020;28;20103;-65
2023/10/16 03:25:50;;;;;;;2.25;2.15;;;;;;;;;;5106093;28;20052;-64
2023/10/16 03:28:18;;;;;;;2.20;2.10;;;;;;;;;;5103033;28;20496;-65
2023/10/16 03:30:47;;;;;;;2.40;2.30;;;;;;;;;;5114446;27;20437;-65
2023/10/16 03:33:15;;;;;;;2.30;2.20;;;;;;;;;;5101543;28;20130;-66
2023/10/16 03:35:45;;;;;;;2.78;2.58;;;;;;;;;;5112960;28;20047;-65
2023/10/16 03:38:24;;;;;;;2.30;2.20;;;;;;;;;;5104616;28;20847;-65
2023/10/16 03:40:53;;;;;;;2.45;2.35;;;;;;;;;;5108514;28;20145;-65
2023/10/16 03:43:23;;;;;;;3.17;2.40;;;;;;;;;;5098887;28;20044;-65
2023/10/16 03:45:52;;;;;;;2.30;2.20;;;;;;;;;;5107004;28;20419;-65
2023/10/16 03:48:21;;;;;;;2.50;2.30;;;;;;;;;;5106614;28;20097;-65
2023/10/16 03:50:50;;;;;;;2.60;2.40;;;;;;;;;;5112678;28;20161;-65
2023/10/16 03:53:20;;;;;;;2.70;2.50;;;;;;;;;;5100000;27;20060;-65
2023/10/16 03:55:49;;;;;;;2.45;2.35;;;;;;;;;;5108201;27;20504;-65
2023/10/16 03:58:18;;;;;;;2.40;2.30;;;;;;;;;;5095634;28;20044;-66
2023/10/16 04:00:56;;;;;;;4.35;2.40;;;;;;;;;;5111194;27;20101;-65
2023/10/16 04:03:26;;;;;;;2.63;2.50;;;;;;;;;;5102848;27;20124;-64
2023/10/16 04:05:55;;;;;;;2.63;2.53;;;;;;;;;;5111655;28;20047;-65
2023/10/16 04:08:25;;;;;;;2.20;2.10;;;;;;;;;;5104752;27;20040;-64
2023/10/16 04:10:54;;;;;;;2.45;2.35;;;;;;;;;;5111257;28;20043;-64
2023/10/16 04:13:26;;;;;;;2.30;2.20;;;;;;;;;;5103589;28;20149;-65
2023/10/16 04:16:13;;;;;;;2.42;2.33;;;;;;;;;;5114654;27;20118;-65
2023/10/16 04:18:41;;;;;;;2.50;2.40;;;;;;;;;;5109176;28;20131;-64
2023/10/16 04:23:55;;;;;;;2.20;2.10;;;;;;;;;;5091947;27;20047;-65
2023/10/16 04:26:33;;;;;;;2.70;2.50;;;;;;;;;;5115923;27;20826;-66
2023/10/16 04:31:57;;;;;;;2.70;2.60;;;;;;;;;;5100950;27;20052;-65
2023/10/16 04:34:31;;;;;;;2.60;2.50;;;;;;;;;;5109254;27;20088;-65
2023/10/16 04:45:54;;;;;;;2.40;2.30;;;;;;;;;;5102460;27;20098;-64
2023/10/16 04:48:24;;;;;;;2.72;2.60;;;;;;;;;;5103934;27;20147;-65
2023/10/16 04:54:13;;;;;;;2.40;2.30;;;;;;;;;;5105521;27;20481;-65
2023/10/16 04:59:58;;;;;;;2.42;2.33;;;;;;;;;;5061035;28;20067;-65
2023/10/16 05:02:40;;;;;;;4.65;2.40;;;;;;;;;;5105981;27;20543;-64
2023/10/16 05:08:30;;;;;;;2.50;2.40;;;;;;;;;;5100299;27;20101;-64
2023/10/16 05:13:55;;;;;;;2.50;2.40;;;;;;;;;;5106199;27;20112;-64
2023/10/16 05:16:35;;;;;;;2.97;2.60;;;;;;;;;;5111382;27;20036;-64
2023/10/16 05:19:04;;;;;;;3.03;2.92;;;;;;;;;;5104800;27;20078;-64
2023/10/16 05:22:02;;;;;;;3.95;2.33;;;;;;;;;;5103007;27;20054;-62
2023/10/16 06:14:20;;;;;;;3.13;2.88;;;;;;;;;;5096416;28;20091;-61
2023/10/16 06:16:50;;;;;;;2.75;2.65;;;;;;;;;;5100990;28;20609;-62
2023/10/16 06:19:19;;;;;;;2.85;2.70;;;;;;;;;;5099079;28;20063;-62
2023/10/16 06:21:48;;;;;;;2.75;2.65;;;;;;;;;;5095653;28;20677;-62
2023/10/16 06:24:28;;;;;;;2.80;2.70;;;;;;;;;;5098562;28;20043;-62
2023/10/16 06:27:05;;;;;;;3.17;3.05;;;;;;;;;;5100404;28;20047;-63
2023/10/16 06:29:40;;;;;;;2.50;2.40;;;;;;;;;;5098326;28;20136;-62
2023/10/16 06:32:18;;;;;;;2.50;2.40;;;;;;;;;;5098157;28;20052;-62
2023/10/16 06:34:47;;;;;;;2.30;2.20;;;;;;;;;;5097336;28;20048;-63
2023/10/16 06:37:17;;;;;;;2.50;2.40;;;;;;;;;;5099498;27;20066;-63
2023/10/16 06:39:46;;;;;;;2.92;2.75;;;;;;;;;;5098449;28;20093;-62
2023/10/16 06:42:18;;;;;;;2.70;2.50;;;;;;;;;;5095557;28;20067;-63
2023/10/16 06:44:50;;;;;;;2.60;2.50;;;;;;;;;;5098154;28;20063;-62
2023/10/16 06:47:23;;;;;;;2.67;2.58;;;;;;;;;;5100529;28;20052;-63
2023/10/16 06:49:54;;;;;;;2.60;2.40;;;;;;;;;;5094872;27;20124;-62
2023/10/16 06:52:25;;;;;;;2.63;2.53;;;;;;;;;;5099536;28;20142;-63
2023/10/16 06:54:53;;;;;;;2.60;2.50;;;;;;;;;;5100288;27;20040;-62
2023/10/16 06:57:25;;;;;;;4.00;2.90;;;;;;;;;;5094705;28;20059;-62
2023/10/16 06:59:55;;;;;;;2.55;2.35;;;;;;;;;;5100013;28;20597;-62
2023/10/16 07:02:23;;;;;;;3.17;2.83;;;;;;;;;;5097758;28;20048;-62
2023/10/16 07:04:52;;;;;;;2.60;2.50;;;;;;;;;;5096256;28;20072;-61
2023/10/16 07:07:22;;;;;;;2.70;2.60;;;;;;;;;;5098941;28;20562;-62
2023/10/16 07:09:51;;;;;;;2.60;2.50;;;;;;;;;;5096131;28;20051;-62
2023/10/16 07:12:22;;;;;;;2.85;2.65;;;;;;;;;;5098618;28;20132;-63
2023/10/16 07:14:56;;;;;;;2.63;2.53;;;;;;;;;;5099006;28;20048;-64
2023/10/16 07:17:25;;;;;;;3.00;2.80;;;;;;;;;;5093681;28;20043;-64
2023/10/16 07:19:58;;;;;;;3.10;2.90;;;;;;;;;;5097842;28;20044;-63
2023/10/16 07:22:31;;;;;;;3.30;3.10;;;;;;;;;;5097632;28;20091;-62
2023/10/16 07:25:22;;;;;;;3.15;2.95;;;;;;;;;;5095877;28;20058;-62
2023/10/16 07:27:58;;;;;;;2.65;2.55;;;;;;;;;;5089053;28;20052;-62
2023/10/16 07:30:28;;;;;;;2.70;2.60;;;;;;;;;;5090583;28;20051;-62
2023/10/16 07:32:56;;;;;;;2.95;2.75;;;;;;;;;;5095824;28;20056;-62
2023/10/16 07:35:25;;;;;;;2.78;2.58;;;;;;;;;;5097908;28;20043;-62
2023/10/16 07:37:54;;;;;;;3.25;2.97;;;;;;;;;;5099527;28;20040;-63
2023/10/16 07:40:25;;;;;;;3.10;2.90;;;;;;;;;;5096883;28;20039;-61
2023/10/16 07:42:54;;;;;;;2.90;2.70;;;;;;;;;;5096361;28;20044;-61
2023/10/16 07:45:23;;;;;;;3.22;2.95;;;;;;;;;;5097262;28;20067;-61
2023/10/16 07:47:52;;;;;;;2.70;2.60;;;;;;;;;;5100439;28;20498;-61
2023/10/16 07:50:21;;;;;;;2.95;2.75;;;;;;;;;;5098898;28;20052;-60
2023/10/16 07:52:50;;;;;;;3.03;2.83;;;;;;;;;;5096210;28;20043;-60
2023/10/16 07:55:38;;;;;;;2.50;2.40;;;;;;;;;;5099882;28;20536;-61
2023/10/16 07:58:15;;;;;;;3.03;2.83;;;;;;;;;;5098087;28;20052;-61
2023/10/16 08:00:56;;;;;;;3.10;2.90;;;;;;;;;;5097621;28;20043;-62
2023/10/16 08:03:26;;;;;;;2.85;2.75;;;;;;;;;;5096044;28;20047;-62
2023/10/16 08:05:55;;;;;;;2.63;2.53;;;;;;;;;;5096901;28;20160;-62
2023/10/16 08:08:36;;;;;;;3.10;2.90;;;;;;;;;;5096454;28;20073;-63
2023/10/16 08:11:12;;;;;;;3.97;3.13;;;;;;;;;;5096119;28;20125;-62
2023/10/16 08:13:47;;;;;;;2.50;2.40;;;;;;;;;;5095525;28;20043;-61
2023/10/16 08:16:18;;;;;;;2.85;2.75;;;;;;;;;;5101470;27;20043;-61
2023/10/16 08:18:50;;;;;;;3.35;3.10;;;;;;;;;;5105278;27;20046;-62
2023/10/16 08:21:26;;;;;;;3.17;2.97;;;;;;;;;;5102141;27;20409;-61
2023/10/16 08:23:55;;;;;;;3.75;3.47;;;;;;;;;;5100806;28;20044;-63
2023/10/16 08:26:29;;;;;;;3.65;2.70;;;;;;;;;;5106003;28;20243;-63
2023/10/16 08:29:11;;;;;;;3.22;3.03;;;;;;;;;;5100764;27;20424;-61
2023/10/16 08:31:42;;;;;;;3.00;2.80;;;;;;;;;;5101891;27;20135;-59
2023/10/16 08:34:12;;;;;;;3.63;3.08;;;;;;;;;;5098466;28;20040;-61
2023/10/16 08:36:41;;;;;;;3.30;3.10;;;;;;;;;;5098042;28;20048;-62
2023/10/16 08:39:09;;;;;;;2.95;2.75;;;;;;;;;;5097919;28;20132;-62
2023/10/16 08:41:45;;;;;;;3.08;2.88;;;;;;;;;;5099503;28;20047;-61
2023/10/16 08:44:18;;;;;;;3.15;2.95;;;;;;;;;;5100115;27;20048;-61
2023/10/16 08:46:53;;;;;;;3.08;2.88;;;;;;;;;;5101817;28;20447;-63
2023/10/16 08:49:23;;;;;;;2.70;2.60;;;;;;;;;;5116042;27;20054;-61
2023/10/16 08:51:54;;;;;;;3.60;2.63;;;;;;;;;;5102629;28;20560;-62
2023/10/16 08:57:11;;;;;;;3.00;2.80;;;;;;;;;;5067221;28;20079;-62
2023/10/16 08:59:42;;;;;;;2.97;2.78;;;;;;;;;;5102444;28;20079;-62
2023/10/16 09:02:12;;;;;;;2.47;2.35;;;;;;;;;;5103303;27;20043;-62
2023/10/16 09:04:41;;;;;;;2.70;2.50;;;;;;;;;;5101158;28;20055;-64
2023/10/16 09:07:11;;;;;;;3.30;3.00;;;;;;;;;;5104399;27;20173;-63
2023/10/16 09:09:41;;;;;;;3.70;2.45;;;;;;;;;;5097784;28;20047;-63
2023/10/16 09:12:11;;;;;;;2.60;2.40;;;;;;;;;;5096939;27;20063;-64
2023/10/16 09:14:39;;;;;;;3.25;2.95;;;;;;;;;;5102989;27;20052;-63
2023/10/16 09:17:08;;;;;;;2.50;2.40;;;;;;;;;;5102313;27;20043;-62
2023/10/16 09:19:46;;;;;;;2.47;2.38;;;;;;;;;;5098662;28;20043;-62
2023/10/16 09:22:33;;;;;;;2.80;2.60;;;;;;;;;;5096875;28;20122;-62
2023/10/16 09:25:03;;;;;;;2.60;2.50;;;;;;;;;;5100913;28;20047;-62
2023/10/16 09:27:32;;;;;;;2.90;2.72;;;;;;;;;;5100379;27;20048;-63
2023/10/16 09:30:08;;;;;;;2.92;2.72;;;;;;;;;;5099502;28;20044;-63
2023/10/16 09:32:39;;;;;;;2.70;2.50;;;;;;;;;;5100317;27;20138;-64
2023/10/16 09:35:11;;;;;;;3.08;2.88;;;;;;;;;;5099153;28;20131;-63
2023/10/16 09:37:47;;;;;;;2.72;2.53;;;;;;;;;;5096740;28;20040;-63
2023/10/16 09:40:35;;;;;;;2.80;2.70;;;;;;;;;;5096344;27;20050;-62
2023/10/16 09:43:18;;;;;;;2.75;2.65;;;;;;;;;;5102257;28;20083;-63
2023/10/16 09:45:47;;;;;;;2.80;2.70;;;;;;;;;;5101047;27;20047;-63
2023/10/16 09:48:19;;;;;;;2.95;2.75;;;;;;;;;;5097959;28;20108;-64
2023/10/16 09:50:48;;;;;;;2.70;2.50;;;;;;;;;;5097944;28;20485;-62
2023/10/16 09:53:18;;;;;;;2.95;2.75;;;;;;;;;;5099900;28;20073;-63
2023/10/16 09:55:48;;;;;;;2.80;2.60;;;;;;;;;;5097618;28;20152;-63
2023/10/16 09:58:18;;;;;;;3.00;2.70;;;;;;;;;;5098450;28;20072;-62
2023/10/16 10:00:49;;;;;;;2.60;2.40;;;;;;;;;;5096990;28;20044;-63
2023/10/16 10:03:20;;;;;;;2.45;2.35;;;;;;;;;;5097892;27;20044;-64
2023/10/16 10:05:55;;;;;;;2.50;2.40;;;;;;;;;;5097706;28;20444;-64
2023/10/16 10:08:38;;;;;;;2.67;2.47;;;;;;;;;;5098374;28;20039;-63
2023/10/16 10:11:26;;;;;;;2.65;2.45;;;;;;;;;;5098902;28;20108;-63
2023/10/16 10:14:09;;;;;;;2.58;2.38;;;;;;;;;;5096789;27;20036;-64
2023/10/16 10:16:38;;;;;;;2.20;2.10;;;;;;;;;;5095390;28;20059;-64
2023/10/16 10:19:23;;;;;;;2.35;2.20;;;;;;;;;;5093587;28;20114;-64
2023/10/16 10:21:54;;;;;;;2.42;2.33;;;;;;;;;;5097385;28;20091;-64
2023/10/16 10:24:24;;;;;;;3.20;3.00;;;;;;;;;;5094892;28;20044;-64
2023/10/16 10:26:55;;;;;;;3.13;2.92;;;;;;;;;;5098162;28;20044;-62
2023/10/16 10:29:25;;;;;;;3.13;2.92;;;;;;;;;;5095856;28;20055;-64
2023/10/16 10:31:56;;;;;;;3.08;2.88;;;;;;;;;;5095777;27;20464;-64
2023/10/16 10:34:27;;;;;;;2.90;2.70;;;;;;;;;;5098043;28;20550;-64
2023/10/16 10:36:58;;;;;;;2.65;2.53;;;;;;;;;;5100097;28;20074;-64
2023/10/16 10:39:44;;;;;;;2.60;2.50;;;;;;;;;;5096520;28;20096;-64
2023/10/16 10:42:24;;;;;;;2.50;2.30;;;;;;;;;;5095838;28;20133;-63
2023/10/16 10:45:17;;;;;;;2.60;2.45;;;;;;;;;;5097764;28;20481;-64
2023/10/16 10:47:46;;;;;;;2.63;2.53;;;;;;;;;;5097639;28;20058;-65
2023/10/16 10:50:15;;;;;;;4.07;2.90;;;;;;;;;;5096850;28;20048;-65
2023/10/16 10:52:43;;;;;;;2.80;2.60;;;;;;;;;;5096144;28;20051;-65
2023/10/16 10:55:22;;;;;;;2.40;2.30;;;;;;;;;;5099556;28;20044;-65
2023/10/16 10:57:58;;;;;;;2.50;2.30;;;;;;;;;;5092822;27;20138;-65
2023/10/16 11:00:45;;;;;;;2.38;2.28;;;;;;;;;;5101284;28;20039;-66
2023/10/16 11:03:30;;;;;;;2.50;2.40;;;;;;;;;;5095542;28;20056;-65
2023/10/16 11:05:59;;;;;;;2.42;2.33;;;;;;;;;;5100774;28;20108;-64
2023/10/16 11:08:33;;;;;;;2.30;2.20;;;;;;;;;;5096682;28;20051;-65
2023/10/16 11:11:03;;;;;;;;;;;;;;;;;;5099821;28;20522;-65
2023/10/16 11:13:33;;;;;;;2.25;2.15;;;;;;;;;;5097437;28;19973;-64
2023/10/16 11:16:02;;;;;;;2.70;2.50;;;;;;;;;;5097237;28;20040;-65
2023/10/16 11:18:31;;;;;;;2.30;2.20;;;;;;;;;;5092979;28;20067;-64
2023/10/16 11:21:04;;;;;;;2.30;2.20;;;;;;;;;;5094047;28;20126;-65
2023/10/16 11:23:38;;;;;;;2.47;2.38;;;;;;;;;;5096671;28;20366;-64
2023/10/16 11:26:12;;;;;;;2.35;2.25;;;;;;;;;;5093487;28;20054;-63
2023/10/16 11:28:48;;;;;;;2.50;2.30;;;;;;;;;;5092512;28;20408;-64
2023/10/16 11:31:19;;;;;;;2.22;2.13;;;;;;;;;;5090962;28;20059;-64
2023/10/16 11:34:02;;;;;;;2.75;2.50;;;;;;;;;;5092580;28;20130;-63
2023/10/16 11:36:34;;;;;;;2.38;2.28;;;;;;;;;;5097133;28;20069;-64
2023/10/16 11:39:26;;;;;;;2.38;2.25;;;;;;;;;;5078039;28;20056;-65
2023/10/16 11:41:54;;;;;;;2.60;2.50;;;;;;;;;;5094774;28;20043;-64
2023/10/16 11:44:32;;;;;;;2.22;2.13;;;;;;;;;;5096052;28;20043;-64
2023/10/16 11:47:03;;;;;;;2.22;2.13;;;;;;;;;;5092228;27;20050;-63
2023/10/16 11:49:35;;;;;;;2.50;2.40;;;;;;;;;;5095883;27;20067;-64
2023/10/16 11:52:21;;;;;;;2.40;2.30;;;;;;;;;;5097893;28;20043;-64
2023/10/16 11:54:50;;;;;;;2.20;2.10;;;;;;;;;;5075660;28;20249;-64
2023/10/16 11:57:18;;;;;;;2.28;2.10;;;;;;;;;;5081985;28;20059;-64
2023/10/16 11:59:51;;;;;;;2.45;2.25;;;;;;;;;;5078452;28;20101;-65
2023/10/16 12:02:21;;;;;;;2.13;2.03;;;;;;;;;;5081398;28;20048;-64
2023/10/16 12:04:50;;;;;;;2.22;2.13;;;;;;;;;;5078588;28;20056;-64
2023/10/16 12:07:19;;;;;;;2.25;2.15;;;;;;;;;;5077588;27;20454;-65
2023/10/16 12:09:51;;;;;;;2.00;1.90;;;;;;;;;;5078331;28;20469;-65
2023/10/16 12:12:24;;;;;;;2.20;2.10;;;;;;;;;;5077467;28;20051;-64
2023/10/16 12:14:56;;;;;;;1.98;1.88;;;;;;;;;;5079100;28;20131;-64
2023/10/16 12:17:28;;;;;;;2.40;2.20;;;;;;;;;;5074213;28;20125;-64
2023/10/16 12:19:57;;;;;;;2.15;2.05;;;;;;;;;;5078426;28;20040;-66
2023/10/16 12:22:26;;;;;;;2.47;2.38;;;;;;;;;;5078171;28;20505;-65
2023/10/16 12:24:56;;;;;;;1.90;1.80;;;;;;;;;;5077405;28;20048;-64
2023/10/16 12:27:25;;;;;;;2.28;2.17;;;;;;;;;;5073968;28;20065;-65
2023/10/16 12:29:55;;;;;;;2.28;2.15;;;;;;;;;;5075592;28;20367;-66
2023/10/16 12:32:24;;;;;;;2.28;2.17;;;;;;;;;;5079075;28;20125;-64
2023/10/16 12:34:54;;;;;;;2.00;1.90;;;;;;;;;;5079214;28;20055;-66
2023/10/16 12:37:23;;;;;;;2.20;2.10;;;;;;;;;;5073749;28;20473;-66
2023/10/16 12:39:52;;;;;;;1.90;1.80;;;;;;;;;;5081940;28;20128;-66
2023/10/16 12:42:21;;;;;;;2.63;2.13;;;;;;;;;;5084161;28;20065;-69
2023/10/16 12:44:50;;;;;;;1.98;1.88;;;;;;;;;;5079580;28;20052;-66
2023/10/16 12:47:20;;;;;;;2.03;1.92;;;;;;;;;;5076130;28;20536;-63
2023/10/16 12:50:11;;;;;;;2.15;1.95;;;;;;;;;;5073157;28;20044;-64
2023/10/16 12:52:42;;;;;;;2.30;2.10;;;;;;;;;;5083897;28;20046;-64
2023/10/16 12:55:10;;;;;;;2.15;2.00;;;;;;;;;;5096455;28;20043;-64
2023/10/16 12:57:43;;;;;;;1.95;1.85;;;;;;;;;;5095464;27;20388;-65
2023/10/16 13:00:16;;;;;;;1.98;1.85;;;;;;;;;;5096795;28;20108;-65
2023/10/16 13:02:47;;;;;;;2.70;2.03;;;;;;;;;;5093425;28;20489;-65
2023/10/16 13:05:15;;;;;;;2.17;2.08;;;;;;;;;;5101060;27;20123;-65
2023/10/16 13:07:44;;;;;;;1.67;1.58;;;;;;;;;;5094538;28;20052;-64
2023/10/16 13:10:20;;;;;;;2.00;1.90;;;;;;;;;;5101260;28;20048;-64
2023/10/16 13:12:48;;;;;;;2.10;2.00;;;;;;;;;;5095158;28;20052;-64
2023/10/16 13:15:24;;;;;;;2.20;2.10;;;;;;;;;;5100143;28;20051;-65
2023/10/16 13:17:55;;;;;;;2.30;2.20;;;;;;;;;;5098749;28;20132;-66
2023/10/16 13:20:27;;;;;;;2.30;2.20;;;;;;;;;;5099642;28;20413;-65
2023/10/16 13:22:57;;;;;;;2.65;2.45;;;;;;;;;;5094079;27;20059;-65
2023/10/16 13:25:30;;;;;;;2.10;2.00;;;;;;;;;;5093447;28;20507;-66
2023/10/16 13:27:59;;;;;;;2.15;2.05;;;;;;;;;;5092909;28;20496;-65
2023/10/16 13:30:31;;;;;;;2.13;2.03;;;;;;;;;;5098123;28;20055;-66
2023/10/16 13:33:06;;;;;;;2.55;2.42;;;;;;;;;;5099254;28;20051;-65
2023/10/16 13:35:38;;;;;;;2.38;2.28;;;;;;;;;;5098134;28;20039;-64
2023/10/16 13:38:08;;;;;;;2.25;2.05;;;;;;;;;;5095039;27;20080;-64
2023/10/16 13:40:38;;;;;;;2.17;2.08;;;;;;;;;;5098084;28;20051;-65
2023/10/16 13:43:10;;;;;;;2.42;2.22;;;;;;;;;;5094063;27;20052;-64
2023/10/16 13:45:39;;;;;;;2.25;2.10;;;;;;;;;;5097079;27;20083;-64
2023/10/16 13:48:10;;;;;;;2.20;2.10;;;;;;;;;;5096459;28;20403;-64
2023/10/16 13:50:41;;;;;;;2.40;2.30;;;;;;;;;;5097654;27;20113;-64
2023/10/16 13:53:10;;;;;;;2.30;2.20;;;;;;;;;;5096290;28;20431;-65
2023/10/16 13:55:40;;;;;;;2.28;2.15;;;;;;;;;;5095615;27;20047;-64
2023/10/16 13:58:09;;;;;;;2.35;2.15;;;;;;;;;;5092649;28;20051;-65
2023/10/16 14:00:38;;;;;;;2.25;2.15;;;;;;;;;;5096289;28;20047;-66
2023/10/16 14:03:08;;;;;;;2.03;1.92;;;;;;;;;;5098028;28;20051;-65
2023/10/16 14:05:44;;;;;;;2.58;2.05;;;;;;;;;;5095111;27;20075;-67
2023/10/16 14:08:14;;;;;;;2.30;2.10;;;;;;;;;;5095140;27;20054;-65
2023/10/16 14:10:49;;;;;;;2.20;2.10;;;;;;;;;;5094469;28;20501;-66
2023/10/16 14:13:21;;;;;;;2.33;2.22;;;;;;;;;;5096693;28;20113;-66
2023/10/16 14:15:51;;;;;;;2.20;2.10;;;;;;;;;;5099012;27;20461;-66
2023/10/16 14:18:24;;;;;;;2.20;2.10;;;;;;;;;;5093394;28;20048;-65
2023/10/16 14:20:56;;;;;;;2.10;2.00;;;;;;;;;;5099759;28;20127;-66
2023/10/16 14:23:28;;;;;;;1.90;1.80;;;;;;;;;;5097395;28;20056;-65
2023/10/16 14:25:58;;;;;;;2.13;2.00;;;;;;;;;;5096975;27;20247;-63
2023/10/16 14:28:32;;;;;;;2.00;1.90;;;;;;;;;;5096066;28;20048;-65
2023/10/16 14:31:01;;;;;;;1.85;1.75;;;;;;;;;;5095311;27;20048;-64
2023/10/16 14:33:30;;;;;;;2.30;2.20;;;;;;;;;;5099148;28;20047;-65
2023/10/16 14:36:01;;;;;;;2.08;1.98;;;;;;;;;;5096558;28;20052;-64
2023/10/16 14:38:30;;;;;;;2.50;2.38;;;;;;;;;;5092280;28;20048;-65
2023/10/16 14:41:04;;;;;;;2.60;2.40;;;;;;;;;;5095911;27;20130;-65
2023/10/16 14:43:34;;;;;;;2.42;2.30;;;;;;;;;;5097947;28;20319;-66
2023/10/16 14:46:04;;;;;;;2.65;2.45;;;;;;;;;;5099914;28;20062;-66
2023/10/16 14:48:33;;;;;;;2.10;2.00;;;;;;;;;;5095307;28;20060;-66
2023/10/16 14:51:04;;;;;;;2.40;2.30;;;;;;;;;;5097066;28;20151;-66
2023/10/16 14:53:34;;;;;;;2.58;2.38;;;;;;;;;;5090952;28;20055;-66
2023/10/16 14:56:02;;;;;;;2.58;2.47;;;;;;;;;;5099857;28;20128;-66
2023/10/16 14:58:30;;;;;;;2.15;2.05;;;;;;;;;;5093872;28;20068;-66
2023/10/16 15:01:20;;;;;;;2.90;2.60;;;;;;;;;;5097048;27;20039;-66
2023/10/16 15:03:51;;;;;;;2.50;2.30;;;;;;;;;;5098109;28;20040;-65
2023/10/16 15:06:22;;;;;;;2.47;2.33;;;;;;;;;;5089636;28;20043;-66
2023/10/16 15:08:53;;;;;;;2.38;2.28;;;;;;;;;;5095361;28;20051;-66
2023/10/16 15:11:26;;;;;;;2.50;2.30;;;;;;;;;;5093578;28;20057;-66
2023/10/16 15:13:55;;;;;;;2.40;2.30;;;;;;;;;;5099184;28;20341;-66
2023/10/16 15:16:26;;;;;;;2.35;2.25;;;;;;;;;;5096080;28;21659;-65
2023/10/16 15:18:56;;;;;;;2.70;2.50;;;;;;;;;;5098304;28;20044;-66
2023/10/16 15:21:27;;;;;;;3.13;2.92;;;;;;;;;;5093903;28;20051;-66
2023/10/16 15:23:56;;;;;;;2.28;2.17;;;;;;;;;;5104933;28;20040;-65
2023/10/16 15:26:25;;;;;;;2.70;2.50;;;;;;;;;;5099269;28;20047;-65
2023/10/16 15:28:54;;;;;;;2.60;2.40;;;;;;;;;;5102410;27;20442;-65
2023/10/16 15:31:22;;;;;;;3.00;2.80;;;;;;;;;;5096262;28;20047;-66
2023/10/16 15:33:52;;;;;;;2.40;2.30;;;;;;;;;;5099024;28;20036;-65
2023/10/16 15:36:21;;;;;;;2.80;2.60;;;;;;;;;;5098701;28;20538;-65
2023/10/16 15:38:51;;;;;;;2.33;2.22;;;;;;;;;;5098944;28;20052;-64
2023/10/16 15:41:19;;;;;;;2.58;2.47;;;;;;;;;;5101621;28;20068;-65
2023/10/16 15:43:48;;;;;;;2.50;2.40;;;;;;;;;;5098957;28;20040;-65
2023/10/16 15:46:26;;;;;;;2.45;2.35;;;;;;;;;;5102531;27;20036;-65
2023/10/16 15:48:55;;;;;;;2.88;2.67;;;;;;;;;;5100785;27;20047;-65
2023/10/16 15:51:25;;;;;;;2.90;2.70;;;;;;;;;;5101258;27;20143;-66
2023/10/16 15:53:55;;;;;;;2.50;2.40;;;;;;;;;;5102750;28;20055;-65
2023/10/16 15:56:24;;;;;;;2.65;2.53;;;;;;;;;;5100998;28;20039;-65
2023/10/16 15:58:52;;;;;;;2.50;2.40;;;;;;;;;;5104286;27;20496;-67
2023/10/16 16:01:21;;;;;;;2.95;2.65;;;;;;;;;;5099891;28;20054;-67
2023/10/16 16:03:50;;;;;;;2.58;2.47;;;;;;;;;;5100232;27;20422;-67
2023/10/16 16:06:19;;;;;;;2.70;2.60;;;;;;;;;;5098722;27;20534;-65
2023/10/16 16:08:48;;;;;;;3.00;2.80;;;;;;;;;;5100946;28;20852;-65
2023/10/16 16:11:19;;;;;;;2.78;2.58;;;;;;;;;;5100006;27;20079;-65
2023/10/16 16:13:49;;;;;;;2.80;2.60;;;;;;;;;;5101497;27;20047;-66
2023/10/16 16:16:20;;;;;;;2.60;2.50;;;;;;;;;;5097426;28;20523;-66
2023/10/16 16:18:49;;;;;;;2.58;2.45;;;;;;;;;;5102535;28;20048;-66
2023/10/16 16:21:17;;;;;;;2.88;2.67;;;;;;;;;;5100161;28;20725;-66
2023/10/16 16:23:46;;;;;;;2.92;2.72;;;;;;;;;;5100865;28;20108;-66
2023/10/16 16:26:14;;;;;;;3.60;3.40;;;;;;;;;;5096852;27;20124;-65
2023/10/16 16:28:46;;;;;;;3.28;3.00;;;;;;;;;;5101069;27;20062;-65
2023/10/16 16:31:16;;;;;;;3.00;2.80;;;;;;;;;;5103725;27;20143;-65
2023/10/16 16:33:45;;;;;;;2.72;2.53;;;;;;;;;;5100063;28;20040;-65